메인 페이지
METAR-TAF:

METAR-TAF

공항 :

후쿠오카, 일본

후쿠오카 공항

위도: 33-35N, 경도: 130-27E, 고도: 9m

현재 날씨관측

예보는 35분 전, 11:00시(UTC)에 발표되었습니다.
북북동4kt북서풍과 북동풍을 오가는
온도 10°C
습도 46%
기압 1019 hPa
시정 10km 이상
1500m 미만 상공 구름 및 적란운 없음

METAR: RJFF 201100Z 02004KT 320V050 CAVOK 10/M01 Q1019 RMK A3010

시각: 20:35 (11:35 UTC)

예보

예보는 29분 전, 11:06시(UTC)에 발표되었습니다.
예보 대상 시간: 20일 12시부터 21일 18시까지 (UTC)
남동3kt
시정 10km 이상
고도 4500ft 상공 구름 조금
전환 중
20일 22시부터 21일 00시까지 (UTC)
북북서11kt
전환 중
21일 12시부터 21일 15시까지 (UTC)
남동3kt

TAF: RJFF 201106Z 2012/2118 14003KT 9999 FEW045 BECMG 2022/2100 34011KT BECMG 2112/2115 13003KT

4,000개 이상의 공항 관측 자료 및 예보 (METAR 및 TAF 보고).

지도상에서 검색 가능한 기상관측소가 노란 점과 빨간 점으로 표시되어 있습니다.

기상관측소 명을 보려면 표시 위로 마우스를 이동하세요.

날씨 관측과 예보를 보려면 클릭하세요.

지도 변경 : 확대하려면 엑스 표시가 있는 녹색 버튼, 축소하려면 빼기 표시가 있는 녹색 버튼, 다음 페이지의 지도를 보려면 녹색 화살표를 클릭하세요.


METAR-TAF: